Ervalia, Brazil
Current Conditions -  °F | °C
As of 5:00 PM on Thursday 23 Oct 2014 (Local Time) from SBCP Reporting Station
Broken Clouds Broken Clouds  
Wind Chill: 77°   Ceiling: 8000
Heat Index: 79°   Visibility: 6mi
Dew Point: 63°   Wind: 12mph
Humidity: 61%   Direction: 100°E
Pressure: 30.06"   Gusts: NA
Location:  20.84°S, 42.66°W
Report Text: SBCP 231900Z 10010KT 9999 FEW025 BKN080 25/17 Q1018
Loading
Personal Weather Stations






























Interactive Weather Map
Tropical Storm Tracking
New forecast layout! Learn more

10-Day Weather Forecast

Advertisements
Track Severe Weather on mobile